Afton, MN (55001)

7:10 AM CST on February 14, 2016 (GMT -0600)
Afton Old Bank | | Change Station
CLOSE
Current Station
Personal Weather Station
Location: Afton, MN
Elevation: 692 ft
Nearby Weather Stations

Elev 692 ft 44.90 °N, 92.78 °W | Updated 29 seconds ago

Overcast
Overcast
11.8 °F
Feels Like 12 °F
N
0.0
Wind Variable Wind from SSW
Gusts 0.0 mph

Today
High -- | Low -- °F
--% Chance of Precip.
Yesterday
High -- | Low -- °F
Precip. -- in
Pressure 30.09 in
Visibility 10.0 miles
Clouds Scattered Clouds 3700 ft
Mostly Cloudy 4500 ft
Overcast 7000 ft
Windchill 12 °F
Dew Point -7 °F
Humidity 42%
Rainfall 0.00 in
Snow Depth Not available.
7:14 AM 5:37 PM
Waxing Crescent, 41% visible
METAR K21D 141254Z AUTO 12007KT 10SM -SN SCT037 BKN045 OVC070 M11/M17 A3009 RMK AO2
Pressure 30.09 in
Visibility 10.0 miles
Clouds Scattered Clouds 3700 ft
Mostly Cloudy 4500 ft
Overcast 7000 ft
Windchill 12 °F
Dew Point -7 °F
Humidity 42%
Rainfall 0.00 in
Snow Depth Not available.
7:14 AM 5:37 PM
Waxing Crescent, 41% visible
METAR K21D 141254Z AUTO 12007KT 10SM -SN SCT037 BKN045 OVC070 M11/M17 A3009 RMK AO2

10-Day Weather Forecast

Almanac

Astronomy

Feb. 14, 2016 Rise Set
Actual Time
Civil Twilight
Nautical Twilight
Astronomical Twilight
Moon
Length of Visible Light
Length of Day
Tomorrow will be .
, % of the Moon is Illuminated

Today's Extremes

State Highs State Lows

Community

WunderPhotos

Upload Photos

1,892,777 photos uploaded!

WunderBlog® & News

Nearby

Air Quality

  Air Quality AQ Index Pollutant
Not available.

Snow Depth

Station Depth Elevation

Earthquake Activity

City Distance Mag. Time & Date
Minimum magnitude displayed is 2.5.

Coastal Water Temperatures

Place Temperature

Stations

Nearby Weather Stations

Station Location Temp. Windchill Dew Point Humidity Wind Precip. Elev Updated Type
                   

Watches & Warnings

There are currently no watches in effect.